sensor_id;sensor_type;location;lat;lon;timestamp;pressure;altitude;pressure_sealevel;temperature;humidity
58668;BME280;59852;43.086;25.634;2022-09-03T00:00:05;98684.78;;;18.91;89.81
58668;BME280;59852;43.086;25.634;2022-09-03T00:02:34;98687.09;;;19.35;89.12
58668;BME280;59852;43.086;25.634;2022-09-03T00:05:09;98689.09;;;19.08;88.64
58668;BME280;59852;43.086;25.634;2022-09-03T00:10:07;98683.41;;;18.71;88.78
58668;BME280;59852;43.086;25.634;2022-09-03T00:12:35;98691.81;;;18.66;89.67
58668;BME280;59852;43.086;25.634;2022-09-03T00:15:07;98701.00;;;18.88;89.34
58668;BME280;59852;43.086;25.634;2022-09-03T00:17:35;98701.19;;;19.11;88.14
58668;BME280;59852;43.086;25.634;2022-09-03T00:20:03;98698.50;;;18.78;87.72
58668;BME280;59852;43.086;25.634;2022-09-03T00:22:31;98703.44;;;18.73;87.86
58668;BME280;59852;43.086;25.634;2022-09-03T00:24:57;98706.31;;;18.88;86.93
58668;BME280;59852;43.086;25.634;2022-09-03T00:27:27;98712.31;;;18.64;89.01
58668;BME280;59852;43.086;25.634;2022-09-03T00:30:04;98718.47;;;18.65;88.27
58668;BME280;59852;43.086;25.634;2022-09-03T00:32:36;98713.25;;;18.89;87.10
58668;BME280;59852;43.086;25.634;2022-09-03T00:35:03;98714.53;;;18.77;88.78
58668;BME280;59852;43.086;25.634;2022-09-03T00:37:30;98716.72;;;18.39;88.98
58668;BME280;59852;43.086;25.634;2022-09-03T00:39:56;98718.31;;;18.66;88.87
58668;BME280;59852;43.086;25.634;2022-09-03T00:49:56;98723.97;;;18.71;87.48
58668;BME280;59852;43.086;25.634;2022-09-03T00:55:37;98728.72;;;19.18;86.04
58668;BME280;59852;43.086;25.634;2022-09-03T01:00:44;98736.91;;;18.74;87.50
58668;BME280;59852;43.086;25.634;2022-09-03T01:14:21;98743.59;;;18.52;87.41
58668;BME280;59852;43.086;25.634;2022-09-03T01:19:42;98745.50;;;18.68;86.15
58668;BME280;59852;43.086;25.634;2022-09-03T01:25:15;98741.03;;;18.34;87.35
58668;BME280;59852;43.086;25.634;2022-09-03T01:30:31;98745.03;;;18.47;86.34
58668;BME280;59852;43.086;25.634;2022-09-03T01:40:41;98753.97;;;18.46;86.04
58668;BME280;59852;43.086;25.634;2022-09-03T01:46:01;98755.63;;;18.39;86.49
58668;BME280;59852;43.086;25.634;2022-09-03T01:48:34;98758.47;;;18.53;85.62
58668;BME280;59852;43.086;25.634;2022-09-03T01:53:44;98756.63;;;18.46;85.52
58668;BME280;59852;43.086;25.634;2022-09-03T01:56:18;98755.63;;;18.39;85.44
58668;BME280;59852;43.086;25.634;2022-09-03T01:59:21;98755.63;;;18.39;85.38
58668;BME280;59852;43.086;25.634;2022-09-03T02:01:42;98756.50;;;18.55;83.83
58668;BME280;59852;43.086;25.634;2022-09-03T02:04:15;98760.94;;;18.47;84.54
58668;BME280;59852;43.086;25.634;2022-09-03T02:06:42;98755.13;;;18.43;84.92
58668;BME280;59852;43.086;25.634;2022-09-03T02:09:08;98763.28;;;18.50;85.06
58668;BME280;59852;43.086;25.634;2022-09-03T02:11:34;98759.97;;;18.56;83.33
58668;BME280;59852;43.086;25.634;2022-09-03T02:14:01;98761.13;;;18.53;83.81
58668;BME280;59852;43.086;25.634;2022-09-03T02:16:30;98770.91;;;18.53;84.23
58668;BME280;59852;43.086;25.634;2022-09-03T02:18:57;98775.78;;;18.31;85.44
58668;BME280;59852;43.086;25.634;2022-09-03T02:21:25;98769.03;;;18.45;83.57
58668;BME280;59852;43.086;25.634;2022-09-03T02:23:51;98762.25;;;18.43;84.36
58668;BME280;59852;43.086;25.634;2022-09-03T02:26:19;98770.91;;;17.93;84.97
58668;BME280;59852;43.086;25.634;2022-09-03T02:28:45;98770.75;;;18.28;84.48
58668;BME280;59852;43.086;25.634;2022-09-03T02:31:11;98768.44;;;18.59;83.10
58668;BME280;59852;43.086;25.634;2022-09-03T02:33:37;98770.03;;;18.44;84.31
58668;BME280;59852;43.086;25.634;2022-09-03T02:36:04;98761.03;;;18.37;84.54
58668;BME280;59852;43.086;25.634;2022-09-03T02:38:29;98770.03;;;18.18;84.68
58668;BME280;59852;43.086;25.634;2022-09-03T02:40:55;98769.09;;;18.27;84.08
58668;BME280;59852;43.086;25.634;2022-09-03T02:43:21;98778.69;;;18.20;83.99
58668;BME280;59852;43.086;25.634;2022-09-03T02:45:50;98780.91;;;18.07;85.53
58668;BME280;59852;43.086;25.634;2022-09-03T02:48:19;98769.81;;;18.03;86.04
58668;BME280;59852;43.086;25.634;2022-09-03T02:50:46;98776.97;;;18.11;85.22
58668;BME280;59852;43.086;25.634;2022-09-03T02:53:12;98776.59;;;18.32;84.69
58668;BME280;59852;43.086;25.634;2022-09-03T02:55:37;98774.63;;;18.34;83.43
58668;BME280;59852;43.086;25.634;2022-09-03T02:58:02;98780.75;;;18.34;83.64
58668;BME280;59852;43.086;25.634;2022-09-03T03:00:31;98773.84;;;18.42;83.06
58668;BME280;59852;43.086;25.634;2022-09-03T03:02:56;98780.13;;;18.15;84.22
58668;BME280;59852;43.086;25.634;2022-09-03T03:05:25;98770.47;;;18.05;84.64
58668;BME280;59852;43.086;25.634;2022-09-03T03:07:54;98767.66;;;18.07;84.23
58668;BME280;59852;43.086;25.634;2022-09-03T03:10:20;98769.88;;;18.12;84.69
58668;BME280;59852;43.086;25.634;2022-09-03T03:12:45;98773.72;;;18.25;83.71
58668;BME280;59852;43.086;25.634;2022-09-03T03:15:10;98770.94;;;18.27;83.28
58668;BME280;59852;43.086;25.634;2022-09-03T03:17:36;98771.09;;;18.25;83.41
58668;BME280;59852;43.086;25.634;2022-09-03T03:20:01;98770.41;;;18.23;84.07
58668;BME280;59852;43.086;25.634;2022-09-03T03:22:27;98766.72;;;18.42;83.60
58668;BME280;59852;43.086;25.634;2022-09-03T03:24:52;98766.75;;;18.50;83.02
58668;BME280;59852;43.086;25.634;2022-09-03T03:27:19;98755.63;;;18.39;82.67
58668;BME280;59852;43.086;25.634;2022-09-03T03:29:44;98758.94;;;18.41;82.83
58668;BME280;59852;43.086;25.634;2022-09-03T03:32:10;98760.75;;;18.40;82.96
58668;BME280;59852;43.086;25.634;2022-09-03T03:34:35;98764.94;;;18.51;82.48
58668;BME280;59852;43.086;25.634;2022-09-03T03:37:00;98776.09;;;18.37;82.61
58668;BME280;59852;43.086;25.634;2022-09-03T03:39:26;98774.44;;;18.35;82.05
58668;BME280;59852;43.086;25.634;2022-09-03T03:41:51;98769.31;;;18.00;83.27
58668;BME280;59852;43.086;25.634;2022-09-03T03:44:16;98766.28;;;18.21;83.37
58668;BME280;59852;43.086;25.634;2022-09-03T03:46:44;98771.50;;;18.39;82.42
58668;BME280;59852;43.086;25.634;2022-09-03T03:49:10;98770.16;;;18.09;83.15
58668;BME280;59852;43.086;25.634;2022-09-03T03:51:36;98767.16;;;18.38;81.78
58668;BME280;59852;43.086;25.634;2022-09-03T03:54:02;98766.16;;;18.30;82.86
58668;BME280;59852;43.086;25.634;2022-09-03T03:56:27;98770.16;;;18.34;82.46
58668;BME280;59852;43.086;25.634;2022-09-03T03:58:53;98766.22;;;18.13;82.92
58668;BME280;59852;43.086;25.634;2022-09-03T04:01:19;98781.72;;;17.99;84.31
58668;BME280;59852;43.086;25.634;2022-09-03T04:03:45;98781.56;;;18.35;83.54
58668;BME280;59852;43.086;25.634;2022-09-03T04:06:11;98788.06;;;17.89;84.03
58668;BME280;59852;43.086;25.634;2022-09-03T04:08:38;98796.03;;;17.71;84.47
58668;BME280;59852;43.086;25.634;2022-09-03T04:11:05;98791.44;;;17.99;83.22
58668;BME280;59852;43.086;25.634;2022-09-03T04:13:31;98796.88;;;17.71;84.28
58668;BME280;59852;43.086;25.634;2022-09-03T04:16:30;98800.09;;;18.09;83.32
58668;BME280;59852;43.086;25.634;2022-09-03T04:18:49;98796.59;;;18.00;83.60
58668;BME280;59852;43.086;25.634;2022-09-03T04:21:20;98789.47;;;18.27;83.15
58668;BME280;59852;43.086;25.634;2022-09-03T04:23:46;98799.69;;;17.96;84.16
58668;BME280;59852;43.086;25.634;2022-09-03T04:26:16;98801.44;;;17.87;84.25
58668;BME280;59852;43.086;25.634;2022-09-03T04:28:42;98805.63;;;17.90;83.54
58668;BME280;59852;43.086;25.634;2022-09-03T04:31:09;98808.25;;;17.90;84.03
58668;BME280;59852;43.086;25.634;2022-09-03T04:33:36;98811.28;;;17.77;84.84
58668;BME280;59852;43.086;25.634;2022-09-03T04:38:30;98811.50;;;17.84;84.11
58668;BME280;59852;43.086;25.634;2022-09-03T04:40:56;98816.31;;;18.06;83.66
58668;BME280;59852;43.086;25.634;2022-09-03T04:43:23;98829.53;;;18.06;82.76
58668;BME280;59852;43.086;25.634;2022-09-03T04:45:48;98829.81;;;18.21;81.97
58668;BME280;59852;43.086;25.634;2022-09-03T04:48:13;98826.78;;;17.90;82.43
58668;BME280;59852;43.086;25.634;2022-09-03T04:50:39;98832.44;;;17.77;85.12
58668;BME280;59852;43.086;25.634;2022-09-03T04:53:05;98831.19;;;18.07;83.41
58668;BME280;59852;43.086;25.634;2022-09-03T04:55:34;98836.22;;;17.92;83.71
58668;BME280;59852;43.086;25.634;2022-09-03T04:58:00;98831.94;;;17.73;84.42
58668;BME280;59852;43.086;25.634;2022-09-03T05:00:25;98836.97;;;17.49;85.52
58668;BME280;59852;43.086;25.634;2022-09-03T05:02:51;98837.19;;;17.38;86.23
58668;BME280;59852;43.086;25.634;2022-09-03T05:05:16;98841.91;;;17.62;86.40
58668;BME280;59852;43.086;25.634;2022-09-03T05:07:42;98847.13;;;17.71;85.15
58668;BME280;59852;43.086;25.634;2022-09-03T05:10:08;98852.69;;;17.68;84.67
58668;BME280;59852;43.086;25.634;2022-09-03T05:12:37;98852.22;;;17.55;85.78
58668;BME280;59852;43.086;25.634;2022-09-03T05:15:02;98851.63;;;17.43;85.93
58668;BME280;59852;43.086;25.634;2022-09-03T05:17:29;98851.44;;;17.72;85.83
58668;BME280;59852;43.086;25.634;2022-09-03T05:19:54;98855.53;;;17.39;86.85
58668;BME280;59852;43.086;25.634;2022-09-03T05:22:20;98868.63;;;17.41;86.51
58668;BME280;59852;43.086;25.634;2022-09-03T05:24:48;98862.34;;;17.60;86.61
58668;BME280;59852;43.086;25.634;2022-09-03T05:27:14;98865.50;;;17.28;87.18
58668;BME280;59852;43.086;25.634;2022-09-03T05:29:42;98872.03;;;17.33;87.17
58668;BME280;59852;43.086;25.634;2022-09-03T05:32:08;98862.28;;;17.52;87.00
58668;BME280;59852;43.086;25.634;2022-09-03T05:34:33;98857.88;;;17.70;85.78
58668;BME280;59852;43.086;25.634;2022-09-03T05:36:59;98861.03;;;17.91;85.15
58668;BME280;59852;43.086;25.634;2022-09-03T05:39:24;98863.22;;;17.78;85.60
58668;BME280;59852;43.086;25.634;2022-09-03T05:41:49;98855.47;;;17.49;85.66
58668;BME280;59852;43.086;25.634;2022-09-03T05:44:17;98867.00;;;17.30;87.24
58668;BME280;59852;43.086;25.634;2022-09-03T05:46:43;98865.84;;;17.60;86.57
58668;BME280;59852;43.086;25.634;2022-09-03T05:49:08;98872.19;;;17.67;86.01
58668;BME280;59852;43.086;25.634;2022-09-03T05:51:35;98872.97;;;17.77;85.36
58668;BME280;59852;43.086;25.634;2022-09-03T05:54:03;98882.09;;;17.65;85.39
58668;BME280;59852;43.086;25.634;2022-09-03T05:56:29;98883.03;;;17.74;84.78
58668;BME280;59852;43.086;25.634;2022-09-03T05:58:56;98899.47;;;17.68;84.76
58668;BME280;59852;43.086;25.634;2022-09-03T06:01:43;98894.97;;;17.78;84.85
58668;BME280;59852;43.086;25.634;2022-09-03T06:04:08;98897.75;;;17.94;83.98
58668;BME280;59852;43.086;25.634;2022-09-03T06:06:35;98902.66;;;17.89;83.95
58668;BME280;59852;43.086;25.634;2022-09-03T06:09:02;98906.53;;;17.77;84.79
58668;BME280;59852;43.086;25.634;2022-09-03T06:11:28;98909.75;;;17.53;85.63
58668;BME280;59852;43.086;25.634;2022-09-03T06:13:54;98904.97;;;17.57;85.19
58668;BME280;59852;43.086;25.634;2022-09-03T06:16:20;98907.31;;;17.60;85.28
58668;BME280;59852;43.086;25.634;2022-09-03T06:18:46;98911.47;;;17.72;84.56
58668;BME280;59852;43.086;25.634;2022-09-03T06:21:11;98913.63;;;17.76;82.82
58668;BME280;59852;43.086;25.634;2022-09-03T06:23:38;98922.06;;;17.62;84.05
58668;BME280;59852;43.086;25.634;2022-09-03T06:26:08;98915.78;;;17.45;84.33
58668;BME280;59852;43.086;25.634;2022-09-03T06:28:34;98924.28;;;17.39;85.07
58668;BME280;59852;43.086;25.634;2022-09-03T06:31:01;98929.31;;;17.70;83.31
58668;BME280;59852;43.086;25.634;2022-09-03T06:33:27;98928.94;;;17.55;83.93
58668;BME280;59852;43.086;25.634;2022-09-03T06:35:54;98926.91;;;17.67;84.41
58668;BME280;59852;43.086;25.634;2022-09-03T06:38:24;98926.34;;;17.73;83.65
58668;BME280;59852;43.086;25.634;2022-09-03T06:40:53;98926.63;;;17.88;83.25
58668;BME280;59852;43.086;25.634;2022-09-03T06:43:19;98924.53;;;17.73;84.28
58668;BME280;59852;43.086;25.634;2022-09-03T06:45:51;98932.31;;;17.93;83.92
58668;BME280;59852;43.086;25.634;2022-09-03T06:48:17;98929.69;;;17.65;83.68
58668;BME280;59852;43.086;25.634;2022-09-03T06:50:42;98931.34;;;17.66;83.72
58668;BME280;59852;43.086;25.634;2022-09-03T06:53:07;98937.75;;;17.46;84.29
58668;BME280;59852;43.086;25.634;2022-09-03T06:55:33;98938.09;;;17.61;84.93
58668;BME280;59852;43.086;25.634;2022-09-03T06:57:59;98940.41;;;17.91;83.41
58668;BME280;59852;43.086;25.634;2022-09-03T07:00:24;98947.91;;;17.68;83.27
58668;BME280;59852;43.086;25.634;2022-09-03T07:02:54;98954.00;;;17.78;83.37
58668;BME280;59852;43.086;25.634;2022-09-03T07:05:22;98952.16;;;17.61;83.09
58668;BME280;59852;43.086;25.634;2022-09-03T07:07:49;98950.69;;;17.94;82.91
58668;BME280;59852;43.086;25.634;2022-09-03T07:10:15;98955.50;;;17.99;82.49
58668;BME280;59852;43.086;25.634;2022-09-03T07:12:44;98951.09;;;17.99;81.76
58668;BME280;59852;43.086;25.634;2022-09-03T07:15:10;98953.94;;;18.06;82.04
58668;BME280;59852;43.086;25.634;2022-09-03T07:17:36;98955.00;;;18.13;82.18
58668;BME280;59852;43.086;25.634;2022-09-03T07:20:01;98950.16;;;18.09;82.00
58668;BME280;59852;43.086;25.634;2022-09-03T07:22:27;98950.91;;;18.19;81.29
58668;BME280;59852;43.086;25.634;2022-09-03T07:24:52;98955.59;;;18.25;81.75
58668;BME280;59852;43.086;25.634;2022-09-03T07:27:18;98961.28;;;18.30;81.07
58668;BME280;59852;43.086;25.634;2022-09-03T07:29:43;98962.03;;;18.40;80.64
58668;BME280;59852;43.086;25.634;2022-09-03T07:32:08;98957.66;;;18.13;81.38
58668;BME280;59852;43.086;25.634;2022-09-03T07:34:34;98956.75;;;18.04;80.86
58668;BME280;59852;43.086;25.634;2022-09-03T07:37:00;98958.00;;;18.18;81.20
58668;BME280;59852;43.086;25.634;2022-09-03T07:39:25;98963.28;;;18.36;80.72
58668;BME280;59852;43.086;25.634;2022-09-03T07:41:50;98962.19;;;18.39;80.49
58668;BME280;59852;43.086;25.634;2022-09-03T07:44:17;98962.31;;;18.37;79.89
58668;BME280;59852;43.086;25.634;2022-09-03T07:46:43;98970.66;;;18.06;81.12
58668;BME280;59852;43.086;25.634;2022-09-03T07:49:10;98958.78;;;18.11;80.71
58668;BME280;59852;43.086;25.634;2022-09-03T07:51:36;98969.06;;;17.96;81.67
58668;BME280;59852;43.086;25.634;2022-09-03T07:54:02;98960.38;;;18.21;81.09
58668;BME280;59852;43.086;25.634;2022-09-03T07:56:29;98959.38;;;18.22;80.41
58668;BME280;59852;43.086;25.634;2022-09-03T07:58:59;98959.00;;;18.35;80.27
58668;BME280;59852;43.086;25.634;2022-09-03T08:01:25;98956.66;;;18.32;79.77
58668;BME280;59852;43.086;25.634;2022-09-03T08:03:52;98959.97;;;18.34;79.91
58668;BME280;59852;43.086;25.634;2022-09-03T08:06:19;98955.53;;;18.17;79.79
58668;BME280;59852;43.086;25.634;2022-09-03T08:08:44;98958.09;;;18.09;79.20
58668;BME280;59852;43.086;25.634;2022-09-03T08:11:17;98964.69;;;18.04;78.60
58668;BME280;59852;43.086;25.634;2022-09-03T08:13:48;98961.38;;;18.02;79.87
58668;BME280;59852;43.086;25.634;2022-09-03T08:16:17;98963.25;;;17.92;80.28
58668;BME280;59852;43.086;25.634;2022-09-03T08:18:43;98970.13;;;17.85;79.85
58668;BME280;59852;43.086;25.634;2022-09-03T08:21:10;98965.22;;;17.90;79.10
58668;BME280;59852;43.086;25.634;2022-09-03T08:23:41;98966.25;;;17.80;80.09
58668;BME280;59852;43.086;25.634;2022-09-03T08:26:07;98964.97;;;17.84;80.02
58668;BME280;59852;43.086;25.634;2022-09-03T08:28:33;98968.59;;;17.83;79.98
58668;BME280;59852;43.086;25.634;2022-09-03T08:31:09;98963.84;;;17.86;80.38
58668;BME280;59852;43.086;25.634;2022-09-03T08:33:40;98969.53;;;17.91;80.24
58668;BME280;59852;43.086;25.634;2022-09-03T08:38:32;98965.97;;;18.00;80.86
58668;BME280;59852;43.086;25.634;2022-09-03T08:41:04;98959.97;;;17.98;79.77
58668;BME280;59852;43.086;25.634;2022-09-03T08:43:29;98962.56;;;18.26;79.67
58668;BME280;59852;43.086;25.634;2022-09-03T08:45:58;98964.53;;;18.06;79.44
58668;BME280;59852;43.086;25.634;2022-09-03T08:48:24;98959.38;;;18.04;80.14
58668;BME280;59852;43.086;25.634;2022-09-03T08:50:51;98963.09;;;18.12;79.85
58668;BME280;59852;43.086;25.634;2022-09-03T08:53:34;98959.81;;;18.18;80.01
58668;BME280;59852;43.086;25.634;2022-09-03T08:56:07;98963.53;;;18.25;79.50
58668;BME280;59852;43.086;25.634;2022-09-03T08:58:35;98958.75;;;18.28;79.08
58668;BME280;59852;43.086;25.634;2022-09-03T09:03:56;98959.31;;;18.32;78.40
58668;BME280;59852;43.086;25.634;2022-09-03T09:14:17;98969.00;;;18.67;78.75
58668;BME280;59852;43.086;25.634;2022-09-03T09:16:52;98966.06;;;18.52;78.31
58668;BME280;59852;43.086;25.634;2022-09-03T09:21:51;98971.00;;;18.47;78.42
58668;BME280;59852;43.086;25.634;2022-09-03T09:24:21;98969.88;;;18.50;77.96
58668;BME280;59852;43.086;25.634;2022-09-03T09:26:47;98974.31;;;18.67;77.94
58668;BME280;59852;43.086;25.634;2022-09-03T09:29:13;98975.53;;;18.73;77.79
58668;BME280;59852;43.086;25.634;2022-09-03T09:31:39;98985.19;;;18.82;77.42
58668;BME280;59852;43.086;25.634;2022-09-03T09:34:08;98984.91;;;18.67;78.10
58668;BME280;59852;43.086;25.634;2022-09-03T09:36:41;98977.66;;;18.69;79.10
58668;BME280;59852;43.086;25.634;2022-09-03T09:39:10;98973.88;;;18.54;78.92
58668;BME280;59852;43.086;25.634;2022-09-03T09:41:36;98984.09;;;18.49;77.70
58668;BME280;59852;43.086;25.634;2022-09-03T09:44:02;98984.78;;;18.33;78.37
58668;BME280;59852;43.086;25.634;2022-09-03T09:46:38;98975.94;;;18.42;77.72
58668;BME280;59852;43.086;25.634;2022-09-03T09:52:28;98985.91;;;18.48;77.62
58668;BME280;59852;43.086;25.634;2022-09-03T09:54:49;98983.38;;;18.39;78.52
58668;BME280;59852;43.086;25.634;2022-09-03T09:57:16;98987.69;;;18.40;78.60
58668;BME280;59852;43.086;25.634;2022-09-03T09:59:42;98990.44;;;18.38;77.90
58668;BME280;59852;43.086;25.634;2022-09-03T10:04:34;99002.78;;;18.65;76.91
58668;BME280;59852;43.086;25.634;2022-09-03T10:09:43;98999.38;;;18.37;78.52
58668;BME280;59852;43.086;25.634;2022-09-03T10:14:46;98994.16;;;18.45;78.58
58668;BME280;59852;43.086;25.634;2022-09-03T10:17:26;99008.38;;;18.62;77.84
58668;BME280;59852;43.086;25.634;2022-09-03T10:20:06;99010.44;;;18.68;77.73
58668;BME280;59852;43.086;25.634;2022-09-03T10:28:33;99021.47;;;18.63;77.65
58668;BME280;59852;43.086;25.634;2022-09-03T10:31:24;99022.56;;;18.71;77.35
58668;BME280;59852;43.086;25.634;2022-09-03T10:33:59;99030.78;;;18.68;77.64
58668;BME280;59852;43.086;25.634;2022-09-03T10:36:29;99020.56;;;18.73;78.28
58668;BME280;59852;43.086;25.634;2022-09-03T10:39:00;99023.03;;;18.92;77.83
58668;BME280;59852;43.086;25.634;2022-09-03T10:44:05;99019.06;;;18.70;77.22
58668;BME280;59852;43.086;25.634;2022-09-03T10:47:09;99024.78;;;18.83;77.15
58668;BME280;59852;43.086;25.634;2022-09-03T10:49:29;99027.75;;;18.62;77.66
58668;BME280;59852;43.086;25.634;2022-09-03T10:52:02;99025.47;;;18.85;77.19
58668;BME280;59852;43.086;25.634;2022-09-03T10:54:54;99024.06;;;18.99;76.34
58668;BME280;59852;43.086;25.634;2022-09-03T11:07:15;99032.56;;;18.85;77.36
58668;BME280;59852;43.086;25.634;2022-09-03T11:09:45;99035.88;;;18.79;77.79
58668;BME280;59852;43.086;25.634;2022-09-03T11:12:15;99044.00;;;18.85;77.62
58668;BME280;59852;43.086;25.634;2022-09-03T11:14:48;99039.69;;;18.84;78.20
58668;BME280;59852;43.086;25.634;2022-09-03T11:17:19;99037.03;;;18.84;77.45
58668;BME280;59852;43.086;25.634;2022-09-03T11:19:47;99044.91;;;18.94;77.22
58668;BME280;59852;43.086;25.634;2022-09-03T11:22:14;99043.72;;;18.88;77.59
58668;BME280;59852;43.086;25.634;2022-09-03T11:24:42;99048.63;;;18.83;77.37
58668;BME280;59852;43.086;25.634;2022-09-03T11:30:21;99045.53;;;18.88;76.69
58668;BME280;59852;43.086;25.634;2022-09-03T11:32:51;99050.53;;;18.91;76.24
58668;BME280;59852;43.086;25.634;2022-09-03T11:35:35;99045.41;;;18.72;77.92
58668;BME280;59852;43.086;25.634;2022-09-03T11:38:02;99046.38;;;18.88;77.17
58668;BME280;59852;43.086;25.634;2022-09-03T11:40:30;99057.06;;;18.79;77.79
58668;BME280;59852;43.086;25.634;2022-09-03T11:43:04;99055.38;;;18.60;78.01
58668;BME280;59852;43.086;25.634;2022-09-03T11:47:55;99058.91;;;18.86;77.52
58668;BME280;59852;43.086;25.634;2022-09-03T11:50:22;99062.19;;;18.98;78.09
58668;BME280;59852;43.086;25.634;2022-09-03T11:52:49;99051.59;;;19.06;76.71
58668;BME280;59852;43.086;25.634;2022-09-03T11:55:28;99057.28;;;19.11;76.23
58668;BME280;59852;43.086;25.634;2022-09-03T11:57:58;99056.13;;;19.14;76.12
58668;BME280;59852;43.086;25.634;2022-09-03T12:00:23;99054.91;;;19.00;76.69
58668;BME280;59852;43.086;25.634;2022-09-03T12:02:50;99058.25;;;18.84;77.84
58668;BME280;59852;43.086;25.634;2022-09-03T12:20:45;99066.97;;;18.59;78.00
58668;BME280;59852;43.086;25.634;2022-09-03T12:23:12;99064.69;;;18.64;77.57
58668;BME280;59852;43.086;25.634;2022-09-03T12:25:42;99064.69;;;18.64;77.53
58668;BME280;59852;43.086;25.634;2022-09-03T12:28:12;99060.16;;;18.74;77.61
58668;BME280;59852;43.086;25.634;2022-09-03T12:30:41;99059.25;;;18.83;76.53
58668;BME280;59852;43.086;25.634;2022-09-03T12:33:06;99074.53;;;18.89;77.61
58668;BME280;59852;43.086;25.634;2022-09-03T12:35:34;99065.53;;;18.65;78.20
58668;BME280;59852;43.086;25.634;2022-09-03T12:38:00;99069.41;;;18.70;77.71
58668;BME280;59852;43.086;25.634;2022-09-03T12:40:26;99068.03;;;18.84;78.26
58668;BME280;59852;43.086;25.634;2022-09-03T12:42:52;99064.03;;;18.80;77.10
58668;BME280;59852;43.086;25.634;2022-09-03T12:45:20;99070.09;;;18.72;77.72
58668;BME280;59852;43.086;25.634;2022-09-03T12:47:45;99069.69;;;18.67;77.73
58668;BME280;59852;43.086;25.634;2022-09-03T12:50:21;99058.78;;;18.52;78.15
58668;BME280;59852;43.086;25.634;2022-09-03T12:52:47;99069.31;;;18.62;77.95
58668;BME280;59852;43.086;25.634;2022-09-03T13:00:35;99064.97;;;18.97;76.75
58668;BME280;59852;43.086;25.634;2022-09-03T13:03:04;99056.97;;;18.88;76.61
58668;BME280;59852;43.086;25.634;2022-09-03T13:05:41;99066.75;;;18.88;76.83
58668;BME280;59852;43.086;25.634;2022-09-03T13:08:08;99069.53;;;18.86;77.21
58668;BME280;59852;43.086;25.634;2022-09-03T13:10:38;99065.00;;;18.43;78.52
58668;BME280;59852;43.086;25.634;2022-09-03T13:13:28;99071.88;;;18.54;78.87
58668;BME280;59852;43.086;25.634;2022-09-03T13:18:23;99077.09;;;18.46;79.71
58668;BME280;59852;43.086;25.634;2022-09-03T13:21:01;99069.63;;;18.41;81.15
58668;BME280;59852;43.086;25.634;2022-09-03T13:23:43;99067.50;;;18.45;80.22
58668;BME280;59852;43.086;25.634;2022-09-03T13:34:21;99072.84;;;18.17;80.74
58668;BME280;59852;43.086;25.634;2022-09-03T13:36:57;99078.13;;;18.17;80.87
58668;BME280;59852;43.086;25.634;2022-09-03T13:39:27;99076.09;;;18.11;80.87
58668;BME280;59852;43.086;25.634;2022-09-03T13:41:56;99077.84;;;18.20;80.71
58668;BME280;59852;43.086;25.634;2022-09-03T13:55:27;99066.59;;;17.91;81.83
58668;BME280;59852;43.086;25.634;2022-09-03T13:58:00;99068.06;;;17.75;82.81
58668;BME280;59852;43.086;25.634;2022-09-03T14:03:05;99078.81;;;17.64;83.43
58668;BME280;59852;43.086;25.634;2022-09-03T14:18:49;99085.13;;;17.91;82.91
58668;BME280;59852;43.086;25.634;2022-09-03T14:21:20;99093.41;;;17.68;83.00
58668;BME280;59852;43.086;25.634;2022-09-03T14:23:50;99084.63;;;17.77;83.15
58668;BME280;59852;43.086;25.634;2022-09-03T14:26:37;99094.00;;;17.72;83.06
58668;BME280;59852;43.086;25.634;2022-09-03T14:39:32;99092.03;;;17.64;83.57
58668;BME280;59852;43.086;25.634;2022-09-03T14:52:59;99098.31;;;17.73;83.77
58668;BME280;59852;43.086;25.634;2022-09-03T15:11:23;99111.00;;;17.50;84.12
58668;BME280;59852;43.086;25.634;2022-09-03T15:18:56;99116.91;;;17.44;84.10
58668;BME280;59852;43.086;25.634;2022-09-03T15:34:11;99124.75;;;17.16;84.85
58668;BME280;59852;43.086;25.634;2022-09-03T15:36:40;99128.91;;;17.09;84.53
58668;BME280;59852;43.086;25.634;2022-09-03T15:39:52;99135.03;;;17.19;85.14
58668;BME280;59852;43.086;25.634;2022-09-03T15:41:56;99127.38;;;17.26;84.63
58668;BME280;59852;43.086;25.634;2022-09-03T15:44:23;99121.06;;;17.46;84.03
58668;BME280;59852;43.086;25.634;2022-09-03T15:46:56;99121.22;;;17.35;84.16
58668;BME280;59852;43.086;25.634;2022-09-03T15:52:08;99132.16;;;17.50;84.04
58668;BME280;59852;43.086;25.634;2022-09-03T15:57:09;99136.09;;;17.36;84.12
58668;BME280;59852;43.086;25.634;2022-09-03T15:59:40;99135.84;;;17.30;85.41
58668;BME280;59852;43.086;25.634;2022-09-03T16:02:30;99135.97;;;17.38;84.55
58668;BME280;59852;43.086;25.634;2022-09-03T16:17:43;99134.41;;;17.45;83.54
58668;BME280;59852;43.086;25.634;2022-09-03T16:20:24;99141.25;;;17.38;83.55
58668;BME280;59852;43.086;25.634;2022-09-03T16:23:00;99138.78;;;17.27;83.71
58668;BME280;59852;43.086;25.634;2022-09-03T16:28:23;99153.25;;;17.23;84.15
58668;BME280;59852;43.086;25.634;2022-09-03T16:43:44;99147.31;;;17.11;84.17
58668;BME280;59852;43.086;25.634;2022-09-03T16:46:17;99148.97;;;17.22;84.08
58668;BME280;59852;43.086;25.634;2022-09-03T16:54:18;99154.38;;;17.01;84.35
58668;BME280;59852;43.086;25.634;2022-09-03T17:17:45;99180.41;;;17.15;83.47
58668;BME280;59852;43.086;25.634;2022-09-03T17:27:55;99197.63;;;17.09;82.71
58668;BME280;59852;43.086;25.634;2022-09-03T17:36:07;99195.81;;;17.10;82.75
58668;BME280;59852;43.086;25.634;2022-09-03T17:48:55;99212.41;;;17.22;81.99
58668;BME280;59852;43.086;25.634;2022-09-03T17:51:30;99213.34;;;17.30;82.10
58668;BME280;59852;43.086;25.634;2022-09-03T17:54:05;99212.78;;;17.27;81.92
58668;BME280;59852;43.086;25.634;2022-09-03T17:56:34;99215.03;;;17.41;81.17